Time;durP1;ratioP1;P1;durP2;ratioP2;P2;SDS_P1;SDS_P2;PMS_P1;PMS_P2;Temp;Humidity;BMP_temperature;BMP_pressure;BME280_temperature;BME280_humidity;BME280_pressure;Samples;Min_cycle;Max_cycle;Signal;HPM_P1;HPM_P2
2021/08/13 00:02:24;;;;;;;;;8.33;7.00;;;;;23.92;50.55;101772.25;4999679;28;45281;-92
2021/08/13 00:04:49;;;;;;;;;10.00;8.33;;;;;23.89;50.74;101786.63;5016114;28;45292;-91
2021/08/13 00:07:15;;;;;;;;;8.33;7.00;;;;;23.87;50.64;101785.03;5021777;28;47468;-92
2021/08/13 00:09:40;;;;;;;;;10.67;10.00;;;;;23.84;50.85;101788.78;5015958;28;45327;-91
2021/08/13 00:12:07;;;;;;;;;9.00;9.00;;;;;23.78;50.49;101778.63;5016109;28;45350;-92
2021/08/13 00:14:33;;;;;;;;;11.00;11.00;;;;;23.82;50.64;101789.84;4999421;28;45291;-91
2021/08/13 00:16:58;;;;;;;;;9.00;8.67;;;;;23.74;50.63;101779.81;4999001;28;47359;-91
2021/08/13 00:19:23;;;;;;;;;9.67;9.67;;;;;23.74;50.26;101790.44;4999221;28;45477;-92
2021/08/13 00:21:49;;;;;;;;;10.00;9.67;;;;;23.68;50.91;101777.63;5018589;28;44790;-92
2021/08/13 00:24:15;;;;;;;;;11.33;9.00;;;;;23.66;51.05;101787.53;5000522;28;45555;-91
2021/08/13 00:26:41;;;;;;;;;10.67;10.67;;;;;23.60;50.87;101784.38;5011474;28;47278;-91
2021/08/13 00:29:06;;;;;;;;;9.67;8.33;;;;;23.56;51.28;101787.38;5022295;28;45397;-92
2021/08/13 00:31:32;;;;;;;;;11.67;8.33;;;;;23.51;51.08;101786.88;5022826;28;45492;-92
2021/08/13 00:33:57;;;;;;;;;9.67;9.67;;;;;23.44;51.04;101792.66;5022918;28;45319;-92
2021/08/13 00:36:25;;;;;;;;;10.33;8.33;;;;;23.40;51.17;101790.31;5021774;28;47270;-93
2021/08/13 00:38:51;;;;;;;;;10.00;9.00;;;;;23.36;51.30;101797.66;5039067;28;45203;-92
2021/08/13 00:41:16;;;;;;;;;7.67;7.67;;;;;23.31;51.36;101797.13;5038704;28;45215;-92
2021/08/13 00:43:41;;;;;;;;;8.00;7.00;;;;;23.23;51.21;101785.28;5026218;28;45283;-93
2021/08/13 00:46:07;;;;;;;;;10.33;10.00;;;;;23.21;51.07;101797.81;5005636;28;47034;-92
2021/08/13 00:48:32;;;;;;;;;7.33;7.00;;;;;23.17;50.95;101801.66;5015407;28;45307;-92
2021/08/13 00:50:58;;;;;;;;;11.33;9.33;;;;;23.15;51.07;101800.06;5018816;28;45273;-92
2021/08/13 00:53:26;;;;;;;;;8.33;7.67;;;;;23.14;51.34;101809.00;5019428;28;45529;-91
2021/08/13 00:55:51;;;;;;;;;9.00;9.00;;;;;23.09;51.23;101804.00;5026336;28;47162;-92
2021/08/13 00:58:18;;;;;;;;;8.67;7.00;;;;;23.01;51.14;101793.94;5009357;28;45513;-92
2021/08/13 01:00:45;;;;;;;;;7.67;7.00;;;;;22.97;50.94;101800.47;5004436;28;45277;-93
2021/08/13 01:03:10;;;;;;;;;9.33;9.33;;;;;22.93;51.28;101812.25;5022236;28;45267;-92
2021/08/13 01:05:36;;;;;;;;;9.00;8.33;;;;;22.87;51.01;101812.69;5021865;28;46698;-91
2021/08/13 01:08:01;;;;;;;;;12.00;11.00;;;;;22.88;51.13;101811.72;5032655;28;45293;-92
2021/08/13 01:10:31;;;;;;;;;8.33;8.00;;;;;22.82;51.07;101816.50;5002327;28;45374;-93
2021/08/13 01:13:03;;;;;;;;;9.00;6.67;;;;;22.80;50.69;101815.78;5018496;28;45437;-93
2021/08/13 01:15:32;;;;;;;;;6.75;6.75;;;;;22.74;51.26;101818.03;5017922;28;47301;-92
2021/08/13 01:18:05;;;;;;;;;11.00;9.00;;;;;22.65;50.82;101807.13;5004642;28;45252;-92
2021/08/13 01:21:10;;;;;;;;;8.33;7.67;;;;;22.63;51.57;101810.84;5001626;28;45689;-91
2021/08/13 01:23:47;;;;;;;;;7.75;7.75;;;;;22.53;50.75;101800.88;5001806;28;45474;-92
2021/08/13 01:26:13;;;;;;;;;7.25;7.25;;;;;22.51;51.21;101816.00;5001361;28;47300;-92
2021/08/13 01:29:03;;;;;;;;;9.50;8.50;;;;;22.50;50.88;101816.94;5001168;28;46105;-91
2021/08/13 01:31:38;;;;;;;;;8.75;8.25;;;;;22.42;51.05;101806.91;5004208;28;45018;-91
2021/08/13 01:34:06;;;;;;;;;11.00;8.75;;;;;22.38;51.09;101808.06;5017716;28;45267;-93
2021/08/13 01:36:33;;;;;;;;;6.67;6.67;;;;;22.34;51.10;101800.41;5021321;28;47172;-92
2021/08/13 01:39:03;;;;;;;;;5.25;5.25;;;;;22.31;51.60;101798.81;5011063;28;45228;-92
2021/08/13 01:41:38;;;;;;;;;8.67;8.67;;;;;22.25;51.03;101793.94;5018262;28;45488;-92
2021/08/13 01:44:06;;;;;;;;;10.67;8.00;;;;;22.20;51.33;101788.09;5018317;28;44819;-92
2021/08/13 01:46:32;;;;;;;;;9.00;8.67;;;;;22.15;51.16;101789.31;5001326;28;47091;-92
2021/08/13 01:48:59;;;;;;;;;8.33;7.67;;;;;22.13;51.27;101801.78;5017831;28;45604;-92
2021/08/13 01:51:25;;;;;;;;;10.33;10.00;;;;;22.09;51.18;101796.81;5014843;28;45275;-92
2021/08/13 01:53:51;;;;;;;;;7.00;6.33;;;;;22.03;51.10;101795.41;5017923;28;45482;-92
2021/08/13 01:56:18;;;;;;;;;6.75;6.25;;;;;22.01;51.55;101800.00;5001261;28;46775;-91
2021/08/13 01:58:45;;;;;;;;;9.00;8.00;;;;;21.95;51.52;101800.41;5010713;28;45402;-92
2021/08/13 02:01:10;;;;;;;;;7.67;6.33;;;;;21.94;51.52;101804.00;5021130;28;45516;-92
2021/08/13 02:03:41;;;;;;;;;8.67;7.67;;;;;21.91;51.41;101806.84;5021433;28;45500;-93
2021/08/13 02:06:07;;;;;;;;;9.00;8.25;;;;;21.87;51.63;101809.72;5020896;28;47622;-92
2021/08/13 02:08:36;;;;;;;;;9.00;8.25;;;;;21.84;51.38;101815.22;5021035;28;45426;-92
2021/08/13 02:11:02;;;;;;;;;10.00;8.00;;;;;21.82;51.59;101806.53;5020632;28;45474;-92
2021/08/13 02:13:27;;;;;;;;;6.50;6.50;;;;;21.79;51.62;101801.44;5037574;28;45596;-92
2021/08/13 02:16:07;;;;;;;;;7.50;5.75;;;;;21.79;51.63;101811.19;5020990;28;47458;-92
2021/08/13 02:18:35;;;;;;;;;7.50;7.00;;;;;21.76;51.49;101815.72;5009168;28;45295;-92
2021/08/13 02:21:05;;;;;;;;;8.25;8.00;;;;;21.75;51.73;101813.19;5019049;28;45412;-91
2021/08/13 02:23:31;;;;;;;;;5.67;5.67;;;;;21.73;51.95;101820.38;5015547;28;45564;-92
2021/08/13 02:25:56;;;;;;;;;7.50;7.00;;;;;21.69;51.09;101822.38;5020293;28;47193;-92
2021/08/13 02:28:22;;;;;;;;;7.25;6.75;;;;;21.69;51.86;101818.84;5020919;28;45230;-91
2021/08/13 02:30:47;;;;;;;;;8.50;6.75;;;;;21.64;51.72;101805.94;5020971;28;45480;-92
2021/08/13 02:33:13;;;;;;;;;11.25;8.75;;;;;21.61;51.68;101800.81;5020611;28;45408;-91
2021/08/13 02:35:38;;;;;;;;;8.00;7.00;;;;;21.60;51.56;101812.38;5012823;28;47903;-92
2021/08/13 02:38:10;;;;;;;;;4.67;4.67;;;;;21.55;51.64;101802.09;5000712;28;45365;-92
2021/08/13 02:40:51;;;;;;;;;7.00;6.00;;;;;21.55;51.60;101815.34;5000876;28;45317;-92
2021/08/13 02:43:26;;;;;;;;;6.25;6.25;;;;;21.49;51.64;101819.22;5003021;28;45339;-91
2021/08/13 02:45:56;;;;;;;;;7.00;6.33;;;;;21.47;51.54;101818.47;5020458;28;47075;-92
2021/08/13 02:48:21;;;;;;;;;5.25;5.00;;;;;21.40;51.86;101806.59;5020519;28;45285;-92
2021/08/13 02:50:48;;;;;;;;;6.00;6.00;;;;;21.36;51.85;101803.31;5004651;28;45314;-92
2021/08/13 02:53:19;;;;;;;;;7.75;6.00;;;;;21.35;51.55;101801.59;5000981;28;45334;-92
2021/08/13 02:56:04;;;;;;;;;6.00;6.00;;;;;21.35;51.63;101812.19;5020172;28;47072;-92
2021/08/13 02:58:40;;;;;;;;;6.75;6.00;;;;;21.32;52.13;101822.13;5020119;28;45304;-92
2021/08/13 03:01:08;;;;;;;;;6.00;6.00;;;;;21.26;52.45;101809.28;5020082;28;44778;-92
2021/08/13 03:03:35;;;;;;;;;8.75;7.00;;;;;21.25;52.27;101804.94;5020431;28;45370;-91
2021/08/13 03:06:02;;;;;;;;;7.00;7.00;;;;;21.25;51.95;101807.59;5019666;28;47409;-92
2021/08/13 03:08:29;;;;;;;;;7.00;6.75;;;;;21.18;52.45;101801.84;5020424;28;45362;-91
2021/08/13 03:10:57;;;;;;;;;8.00;7.00;;;;;21.18;52.05;101808.00;5020020;28;45311;-93
2021/08/13 03:13:24;;;;;;;;;5.33;5.33;;;;;21.13;52.50;101803.94;5019978;28;45266;-92
2021/08/13 03:15:51;;;;;;;;;7.33;7.00;;;;;21.12;52.25;101818.13;5019733;28;47135;-92
2021/08/13 03:18:17;;;;;;;;;5.00;4.67;;;;;21.09;52.35;101825.31;5020205;28;45400;-92
2021/08/13 03:20:43;;;;;;;;;4.00;4.00;;;;;21.07;52.07;101823.72;5020166;28;45507;-92
2021/08/13 03:23:09;;;;;;;;;5.00;5.00;;;;;21.06;52.06;101822.84;5020409;28;45515;-93
2021/08/13 03:25:36;;;;;;;;;7.00;6.00;;;;;21.01;52.31;101818.81;5019716;28;47609;-92
2021/08/13 03:28:05;;;;;;;;;7.50;6.50;;;;;20.98;52.54;101827.78;5019183;28;45231;-94
2021/08/13 03:30:37;;;;;;;;;6.00;6.00;;;;;20.90;52.08;101812.41;5019874;28;45412;-92
2021/08/13 03:33:02;;;;;;;;;5.00;5.00;;;;;20.88;52.87;101816.09;5020096;28;44922;-92
2021/08/13 03:35:28;;;;;;;;;7.00;7.00;;;;;20.88;52.76;101821.38;5011922;28;47340;-92
2021/08/13 03:37:53;;;;;;;;;4.33;4.33;;;;;20.85;52.72;101829.47;5016402;28;44783;-92
2021/08/13 03:40:19;;;;;;;;;6.00;6.00;;;;;20.80;53.17;101825.31;5016885;28;45544;-92
2021/08/13 03:42:44;;;;;;;;;7.00;6.00;;;;;20.79;52.74;101828.06;5014265;28;44859;-91
2021/08/13 03:45:10;;;;;;;;;6.25;6.25;;;;;20.77;53.05;101829.94;5019603;28;48419;-92
2021/08/13 03:47:35;;;;;;;;;5.75;4.50;;;;;20.76;53.37;101830.88;5019589;28;45853;-92
2021/08/13 03:50:01;;;;;;;;;7.00;4.50;;;;;20.74;52.98;101823.03;5025721;28;45563;-92
2021/08/13 03:52:27;;;;;;;;;6.00;5.00;;;;;20.70;53.05;101829.47;5000169;28;45465;-92
2021/08/13 03:54:52;;;;;;;;;6.33;5.00;;;;;20.68;53.03;101828.72;5016328;28;47349;-92
2021/08/13 03:57:17;;;;;;;;;7.67;5.67;;;;;20.65;53.24;101826.28;5019702;28;45532;-92
2021/08/13 03:59:43;;;;;;;;;4.67;4.67;;;;;20.65;53.01;101826.28;4999992;28;45315;-92
2021/08/13 04:02:08;;;;;;;;;4.67;4.67;;;;;20.64;53.24;101828.06;5030034;28;45600;-92
2021/08/13 04:04:34;;;;;;;;;4.00;3.67;;;;;20.62;53.30;101823.81;5003188;28;47290;-92
2021/08/13 04:06:59;;;;;;;;;6.00;6.00;;;;;20.63;53.29;101825.50;5019871;28;45244;-92
2021/08/13 04:09:24;;;;;;;;;9.00;4.00;;;;;20.61;53.36;101825.63;5011451;28;45609;-92
2021/08/13 04:11:50;;;;;;;;;5.00;4.00;;;;;20.56;53.46;101819.75;5023369;28;45390;-92
2021/08/13 04:14:15;;;;;;;;;4.33;4.33;;;;;20.55;53.41;101832.13;5022735;28;46885;-93
2021/08/13 04:16:41;;;;;;;;;4.50;4.50;;;;;20.51;53.51;101830.59;5022949;28;45302;-93
2021/08/13 04:19:06;;;;;;;;;4.00;4.00;;;;;20.51;53.36;101835.88;5013082;28;45718;-92
2021/08/13 04:21:31;;;;;;;;;8.75;4.50;;;;;20.49;53.37;101842.22;5021867;28;45311;-92
2021/08/13 04:23:57;;;;;;;;;4.50;3.75;;;;;20.48;53.71;101849.31;5022730;28;47126;-92
2021/08/13 04:26:22;;;;;;;;;3.00;3.00;;;;;20.45;53.74;101859.22;5022846;28;45263;-92
2021/08/13 04:28:48;;;;;;;;;6.00;5.00;;;;;20.40;53.36;101851.56;5014389;28;45489;-92
2021/08/13 04:31:13;;;;;;;;;6.00;4.00;;;;;20.37;53.58;101854.41;5009769;28;45465;-92
2021/08/13 04:33:39;;;;;;;;;4.00;3.00;;;;;20.33;53.80;101848.44;5037479;28;46557;-92
2021/08/13 04:36:04;;;;;;;;;4.25;4.00;;;;;20.35;53.59;101850.97;5002767;28;45415;-92
2021/08/13 04:38:30;;;;;;;;;6.00;5.25;;;;;20.28;53.58;101843.41;5002817;28;45357;-92
2021/08/13 04:40:55;;;;;;;;;5.50;5.00;;;;;20.23;53.78;101845.47;5022600;28;44811;-92
2021/08/13 04:43:21;;;;;;;;;6.33;5.00;;;;;20.23;54.08;101848.13;5019244;28;48428;-92
2021/08/13 04:45:46;;;;;;;;;6.67;5.00;;;;;20.18;54.20;101844.06;5022343;28;45287;-92
2021/08/13 04:48:11;;;;;;;;;5.00;5.00;;;;;20.16;53.90;101849.44;5022071;28;45152;-92
2021/08/13 04:50:37;;;;;;;;;5.33;5.33;;;;;20.16;54.30;101849.44;5022544;28;45468;-91
2021/08/13 04:53:02;;;;;;;;;5.00;5.00;;;;;20.14;54.11;101856.63;5021956;28;47924;-93
2021/08/13 04:55:28;;;;;;;;;6.50;5.00;;;;;20.15;54.07;101855.66;5022372;28;45297;-91
2021/08/13 04:57:54;;;;;;;;;6.50;6.00;;;;;20.09;54.60;101856.03;5021769;28;45283;-93
2021/08/13 05:00:20;;;;;;;;;5.25;5.25;;;;;20.08;54.18;101860.44;5022024;28;45295;-92
2021/08/13 05:02:46;;;;;;;;;3.50;3.50;;;;;20.09;54.23;101861.31;5021807;28;46784;-92
2021/08/13 05:05:12;;;;;;;;;5.33;5.33;;;;;20.05;54.15;101858.00;5021859;28;44869;-92
2021/08/13 05:07:38;;;;;;;;;5.00;4.67;;;;;20.01;54.10;101862.59;5003658;28;45592;-92
2021/08/13 05:10:10;;;;;;;;;5.00;4.00;;;;;20.01;54.51;101873.16;5002575;28;44914;-91
2021/08/13 05:12:36;;;;;;;;;4.00;4.00;;;;;19.99;54.25;101879.47;5001821;28;47604;-91
2021/08/13 05:15:01;;;;;;;;;4.00;3.33;;;;;20.01;54.51;101882.91;5021593;28;45246;-93
2021/08/13 05:17:27;;;;;;;;;3.00;3.00;;;;;19.98;54.59;101883.06;5021768;28;45734;-91
2021/08/13 05:19:52;;;;;;;;;4.00;4.00;;;;;19.96;54.57;101884.91;5022284;28;45448;-92
2021/08/13 05:22:18;;;;;;;;;5.50;4.00;;;;;19.96;54.87;101895.50;5021918;28;47086;-92
2021/08/13 05:24:43;;;;;;;;;5.33;4.33;;;;;19.96;54.68;101890.22;5021965;28;45287;-91
2021/08/13 05:27:09;;;;;;;;;4.00;3.67;;;;;19.95;54.81;101899.91;5021883;28;45266;-93
2021/08/13 05:29:34;;;;;;;;;6.00;5.67;;;;;19.98;54.77;101899.78;5022068;28;45289;-92
2021/08/13 05:32:00;;;;;;;;;4.00;3.67;;;;;20.00;54.97;101903.16;5021776;28;46981;-92
2021/08/13 05:34:25;;;;;;;;;4.33;4.33;;;;;19.98;54.98;101902.41;5021551;28;45484;-92
2021/08/13 05:36:51;;;;;;;;;6.00;5.67;;;;;20.01;55.08;101911.97;5021639;28;45699;-92
2021/08/13 05:39:16;;;;;;;;;4.67;4.67;;;;;20.00;54.86;101913.75;5038524;28;45377;-92
2021/08/13 05:41:42;;;;;;;;;4.00;4.00;;;;;20.03;54.96;101920.63;5021128;28;47313;-92
2021/08/13 05:44:07;;;;;;;;;5.00;4.00;;;;;20.04;55.11;101924.97;5021614;28;45444;-92
2021/08/13 05:46:33;;;;;;;;;5.00;4.33;;;;;20.05;54.66;101913.50;5039013;28;45372;-92
2021/08/13 05:49:00;;;;;;;;;6.67;6.00;;;;;20.10;54.88;101918.50;5021464;28;45559;-92
2021/08/13 05:51:25;;;;;;;;;6.00;5.00;;;;;20.14;54.53;101920.03;5037967;28;47982;-92
2021/08/13 05:53:51;;;;;;;;;4.00;4.00;;;;;20.17;54.70;101917.19;5021336;28;45236;-92
2021/08/13 05:56:16;;;;;;;;;5.33;4.67;;;;;20.20;55.27;101918.81;5021420;28;45286;-92
2021/08/13 05:58:42;;;;;;;;;4.33;4.33;;;;;20.24;55.22;101922.97;5021821;28;45272;-92
2021/08/13 06:01:07;;;;;;;;;6.00;4.75;;;;;20.25;54.84;101928.19;5016375;28;47287;-91
2021/08/13 06:03:32;;;;;;;;;4.33;4.33;;;;;20.27;54.85;101934.22;5016294;28;45750;-92
2021/08/13 06:05:58;;;;;;;;;4.67;4.00;;;;;20.27;55.01;101936.03;5013289;28;45537;-92
2021/08/13 06:08:23;;;;;;;;;6.00;6.00;;;;;20.32;54.99;101938.41;5005674;28;45338;-93
2021/08/13 06:10:49;;;;;;;;;3.33;3.00;;;;;20.35;54.96;101941.72;5021067;28;46669;-93
2021/08/13 06:13:18;;;;;;;;;6.00;6.00;;;;;20.39;54.99;101940.59;5020142;28;45362;-92
2021/08/13 06:15:45;;;;;;;;;4.00;4.00;;;;;20.45;55.02;101931.44;5013201;28;45497;-93
2021/08/13 06:18:11;;;;;;;;;4.75;4.75;;;;;20.50;54.66;101933.81;5008460;28;45452;-92
2021/08/13 06:20:36;;;;;;;;;5.00;4.67;;;;;20.53;54.29;101926.56;5000826;28;46897;-92
2021/08/13 06:23:02;;;;;;;;;4.00;4.00;;;;;20.57;54.52;101921.94;5020563;28;45303;-93
2021/08/13 06:25:33;;;;;;;;;4.00;4.00;;;;;20.63;54.29;101923.34;5006488;28;45271;-95
2021/08/13 06:27:59;;;;;;;;;4.33;3.67;;;;;20.67;54.41;101923.09;5013412;28;45354;-93
2021/08/13 06:30:24;;;;;;;;;4.00;4.00;;;;;20.72;54.75;101932.50;5030421;28;46963;-93
2021/08/13 06:32:53;;;;;;;;;5.33;3.00;;;;;20.74;54.38;101935.94;5020735;28;45311;-92
2021/08/13 06:35:18;;;;;;;;;5.00;5.00;;;;;20.79;54.83;101944.44;5020740;28;45520;-93
2021/08/13 06:40:26;;;;;;;;;3.33;3.33;;;;;20.82;54.87;101942.47;5017228;28;45377;-93
2021/08/13 06:42:52;;;;;;;;;6.00;4.33;;;;;20.86;54.50;101959.03;5000979;28;45258;-92
2021/08/13 06:45:21;;;;;;;;;5.00;5.00;;;;;20.86;54.25;101956.38;5001207;28;45366;-93
2021/08/13 06:47:46;;;;;;;;;3.33;3.33;;;;;20.90;54.47;101965.84;5001058;28;45592;-91
2021/08/13 06:50:14;;;;;;;;;3.33;3.33;;;;;20.91;54.12;101966.66;5000663;28;46778;-93
2021/08/13 06:52:39;;;;;;;;;3.00;3.00;;;;;20.96;54.20;101967.25;5000686;28;45468;-92
2021/08/13 06:55:09;;;;;;;;;5.67;3.67;;;;;20.99;54.24;101963.56;5000954;28;45312;-93
2021/08/13 06:57:38;;;;;;;;;5.33;5.00;;;;;21.02;54.16;101963.38;5000502;28;45359;-93
2021/08/13 07:00:06;;;;;;;;;3.00;3.00;;;;;21.07;54.13;101964.78;5000154;28;47242;-92
2021/08/13 07:02:32;;;;;;;;;3.00;3.00;;;;;21.12;53.87;101972.47;5000295;28;45478;-94
2021/08/13 07:04:57;;;;;;;;;2.67;2.67;;;;;21.14;54.13;101965.28;4988190;28;44817;-93
2021/08/13 07:07:22;;;;;;;;;5.00;3.00;;;;;21.20;53.66;101972.84;4981701;28;45414;-93
2021/08/13 07:09:48;;;;;;;;;3.00;3.00;;;;;21.24;53.44;101965.53;5000584;28;46966;-93
2021/08/13 07:12:14;;;;;;;;;5.00;5.00;;;;;21.30;53.86;101973.09;5001079;28;45587;-93
2021/08/13 07:14:40;;;;;;;;;4.67;4.67;;;;;21.32;53.41;101970.38;5000895;28;45313;-93
2021/08/13 07:17:06;;;;;;;;;4.67;4.00;;;;;21.34;53.65;101977.25;5000732;28;45327;-93
2021/08/13 07:19:47;;;;;;;;;5.00;5.00;;;;;21.35;53.01;101983.44;5000024;28;47018;-92
2021/08/13 07:22:14;;;;;;;;;6.00;4.00;;;;;21.41;53.53;101988.34;4984525;28;45410;-92
2021/08/13 07:24:40;;;;;;;;;3.67;3.67;;;;;21.47;53.05;101992.38;5000486;28;45241;-92
2021/08/13 07:27:05;;;;;;;;;3.67;3.67;;;;;21.52;52.64;101994.75;5000466;28;45168;-92
2021/08/13 07:29:34;;;;;;;;;4.00;3.00;;;;;21.58;52.90;102000.50;5000040;28;47184;-93
2021/08/13 07:31:59;;;;;;;;;3.00;3.00;;;;;21.61;53.16;101994.16;4999576;28;45449;-93
2021/08/13 07:34:24;;;;;;;;;3.00;3.00;;;;;21.66;53.04;101993.88;4999621;28;45609;-92
2021/08/13 07:36:50;;;;;;;;;3.00;3.00;;;;;21.71;52.82;101995.31;5002395;28;44862;-92
2021/08/13 07:39:16;;;;;;;;;2.00;2.00;;;;;21.76;52.72;102000.34;5002604;28;47015;-92
2021/08/13 07:41:41;;;;;;;;;3.67;3.00;;;;;21.78;52.48;102005.50;5003365;28;45835;-91
2021/08/13 07:44:07;;;;;;;;;2.00;2.00;;;;;21.86;52.31;102017.31;5013764;28;44892;-91
2021/08/13 07:46:32;;;;;;;;;2.33;1.33;;;;;21.90;52.69;102023.28;5003500;28;45722;-92
2021/08/13 07:49:00;;;;;;;;;2.00;0.67;;;;;21.94;51.89;102022.13;5003175;28;47592;-92
2021/08/13 07:51:25;;;;;;;;;1.67;1.67;;;;;21.98;52.00;102021.00;5003326;28;44884;-92
2021/08/13 07:53:53;;;;;;;;;2.33;2.00;;;;;22.01;52.13;102027.91;5003186;28;45461;-92
2021/08/13 07:56:18;;;;;;;;;6.33;2.00;;;;;22.02;52.17;102030.44;5020609;28;45315;-91
2021/08/13 07:58:44;;;;;;;;;2.67;2.67;;;;;22.05;52.21;102032.06;5002674;28;47260;-91
2021/08/13 08:01:09;;;;;;;;;2.67;2.33;;;;;22.11;51.69;102031.66;4997298;28;45379;-91
2021/08/13 08:03:35;;;;;;;;;2.33;1.33;;;;;22.15;51.89;102032.31;5002545;28;45366;-91
2021/08/13 08:06:00;;;;;;;;;2.00;2.00;;;;;22.20;51.69;102039.94;5019861;28;45812;-91
2021/08/13 08:08:25;;;;;;;;;1.67;1.67;;;;;22.25;52.27;102051.09;5019287;28;47136;-91
2021/08/13 08:10:51;;;;;;;;;0.33;0.33;;;;;22.32;51.91;102048.91;5002501;28;45751;-92
2021/08/13 08:13:17;;;;;;;;;4.00;2.00;;;;;22.38;52.34;102051.16;5020461;28;45330;-91
2021/08/13 08:15:45;;;;;;;;;2.00;2.00;;;;;22.43;52.04;102051.69;5002510;28;45511;-91
2021/08/13 08:18:11;;;;;;;;;3.67;2.33;;;;;22.51;51.90;102062.66;5001692;28;46820;-92
2021/08/13 08:20:36;;;;;;;;;2.00;2.00;;;;;22.61;51.36;102076.19;5002417;28;45256;-92
2021/08/13 08:23:02;;;;;;;;;1.00;1.00;;;;;22.66;51.68;102073.22;5001909;28;45323;-91
2021/08/13 08:25:29;;;;;;;;;2.67;2.00;;;;;22.73;51.38;102069.19;5003807;28;44775;-92
2021/08/13 08:27:54;;;;;;;;;2.00;2.00;;;;;22.83;51.55;102066.81;5003875;28;47253;-91
2021/08/13 08:30:20;;;;;;;;;1.67;1.67;;;;;22.90;51.00;102061.91;5002744;28;45474;-91
2021/08/13 08:32:45;;;;;;;;;1.67;1.33;;;;;22.99;50.82;102063.13;5002764;28;45435;-90
2021/08/13 08:35:11;;;;;;;;;4.00;2.00;;;;;23.06;50.83;102067.03;5002401;28;45577;-92
2021/08/13 08:37:58;;;;;;;;;2.00;2.00;;;;;23.16;50.60;102054.84;5001970;28;47549;-91
2021/08/13 08:40:35;;;;;;;;;3.00;3.00;;;;;23.23;50.80;102064.06;5002502;28;45327;-91
2021/08/13 08:43:03;;;;;;;;;2.33;2.33;;;;;23.38;50.81;102068.44;5001920;28;45724;-92
2021/08/13 08:45:30;;;;;;;;;3.33;3.33;;;;;23.46;50.28;102061.63;5019698;28;45229;-91
2021/08/13 08:48:07;;;;;;;;;2.00;2.00;;;;;23.52;50.53;102062.16;5000632;28;47262;-91
2021/08/13 08:50:35;;;;;;;;;2.33;2.33;;;;;23.59;49.87;102068.75;5001233;28;45470;-91
2021/08/13 08:53:08;;;;;;;;;2.00;2.00;;;;;23.65;50.32;102070.97;5001735;28;45248;-92
2021/08/13 08:55:37;;;;;;;;;2.67;2.33;;;;;23.76;49.85;102068.38;5001062;28;45291;-90
2021/08/13 08:58:03;;;;;;;;;5.00;3.00;;;;;23.83;50.09;102074.13;5001375;28;47393;-92
2021/08/13 09:00:28;;;;;;;;;3.67;3.67;;;;;23.93;49.96;102070.81;5002043;28;45574;-91
2021/08/13 09:02:55;;;;;;;;;2.00;2.00;;;;;23.99;49.30;102073.88;5018071;28;45496;-93
2021/08/13 09:05:21;;;;;;;;;2.00;2.00;;;;;24.10;50.20;102074.91;4997481;28;45445;-91
2021/08/13 09:07:46;;;;;;;;;2.67;2.67;;;;;24.17;49.46;102067.34;5001990;28;46611;-92
2021/08/13 09:10:12;;;;;;;;;3.00;3.00;;;;;24.31;50.47;102072.50;5001891;28;45522;-92
2021/08/13 09:12:40;;;;;;;;;3.00;2.00;;;;;24.39;49.90;102058.66;5002052;28;44860;-92
2021/08/13 09:15:25;;;;;;;;;2.00;2.00;;;;;24.51;49.00;102060.38;5002209;28;45249;-92
2021/08/13 09:18:22;;;;;;;;;2.67;2.00;;;;;24.63;49.39;102055.94;5001688;28;47498;-92
2021/08/13 09:21:19;;;;;;;;;1.00;1.00;;;;;24.74;49.20;102055.13;5001045;28;45730;-91
2021/08/13 09:23:59;;;;;;;;;2.33;1.00;;;;;24.84;49.13;102055.31;5001398;28;46089;-92
2021/08/13 09:26:28;;;;;;;;;4.33;4.33;;;;;24.95;48.78;102057.97;5001017;28;45686;-92
2021/08/13 09:28:54;;;;;;;;;1.67;1.67;;;;;25.04;48.95;102058.25;4988488;28;47399;-91
2021/08/13 09:31:25;;;;;;;;;4.00;1.00;;;;;25.10;48.51;102057.78;5001555;28;45353;-92
2021/08/13 09:33:53;;;;;;;;;2.67;2.67;;;;;25.24;48.41;102074.50;5001160;28;45327;-92
2021/08/13 09:36:20;;;;;;;;;3.67;3.00;;;;;25.30;48.59;102066.00;5019114;28;45637;-92
2021/08/13 09:38:47;;;;;;;;;2.00;2.00;;;;;25.40;48.60;102064.31;4999268;28;47129;-92
2021/08/13 09:41:17;;;;;;;;;1.67;1.33;;;;;25.54;47.86;102076.59;4993967;28;45519;-92
2021/08/13 09:43:59;;;;;;;;;3.33;2.33;;;;;25.60;47.19;102069.94;5018566;28;45485;-92
2021/08/13 09:46:28;;;;;;;;;2.00;2.00;;;;;25.70;47.67;102070.03;5018140;28;45249;-92
2021/08/13 09:49:11;;;;;;;;;1.33;1.33;;;;;25.78;47.46;102066.75;4998972;28;48259;-91
2021/08/13 09:51:37;;;;;;;;;2.67;1.00;;;;;25.89;47.11;102064.06;4996812;28;45342;-92
2021/08/13 09:54:05;;;;;;;;;2.33;2.33;;;;;26.00;47.55;102063.19;5000075;28;45233;-91
2021/08/13 09:56:34;;;;;;;;;3.33;2.33;;;;;26.15;46.90;102053.94;5000480;28;45334;-92
2021/08/13 09:59:32;;;;;;;;;2.67;2.67;;;;;26.31;46.35;102050.03;4999567;28;47662;-91
2021/08/13 10:01:57;;;;;;;;;4.33;3.00;;;;;26.41;45.87;102047.44;4957218;28;45320;-92
2021/08/13 10:04:40;;;;;;;;;3.00;3.00;;;;;26.45;45.78;102053.38;4921342;28;45470;-92
2021/08/13 10:07:06;;;;;;;;;3.00;2.00;;;;;26.49;45.81;102047.66;4959584;28;45340;-92
2021/08/13 10:09:49;;;;;;;;;3.00;2.00;;;;;26.60;46.15;102049.41;4958549;28;47493;-91
2021/08/13 10:12:15;;;;;;;;;2.00;2.00;;;;;26.71;45.35;102053.88;4955999;28;45553;-92
2021/08/13 10:14:42;;;;;;;;;2.00;2.00;;;;;26.81;45.53;102045.91;4958305;28;45450;-92
2021/08/13 10:17:09;;;;;;;;;3.00;2.33;;;;;26.94;45.62;102054.56;4958188;28;45283;-92
2021/08/13 10:19:35;;;;;;;;;3.00;1.33;;;;;27.14;45.17;102051.16;4944736;28;47470;-92
2021/08/13 10:22:03;;;;;;;;;4.33;3.33;;;;;27.32;45.89;102059.41;4957185;28;45601;-92
2021/08/13 10:24:28;;;;;;;;;2.33;2.33;;;;;27.45;44.44;102051.16;4952241;28;45516;-92
2021/08/13 10:26:56;;;;;;;;;3.00;3.00;;;;;27.55;44.57;102051.19;4960143;28;45264;-92
2021/08/13 10:29:22;;;;;;;;;4.00;3.67;;;;;27.64;43.56;102045.06;4950725;28;47613;-91
2021/08/13 10:31:48;;;;;;;;;4.67;4.67;;;;;27.67;43.61;102043.94;4941183;28;45399;-92
2021/08/13 10:34:14;;;;;;;;;4.00;4.00;;;;;27.74;43.33;102045.09;4957236;28;44990;-92
2021/08/13 10:36:40;;;;;;;;;6.00;4.67;;;;;27.83;43.67;102048.75;4947185;28;45594;-92
2021/08/13 10:39:08;;;;;;;;;4.00;4.00;;;;;27.93;43.30;102040.75;5013057;28;46878;-91
2021/08/13 10:41:38;;;;;;;;;5.33;4.33;;;;;28.05;43.26;102036.13;4998883;28;45352;-91
2021/08/13 10:44:08;;;;;;;;;3.00;3.00;;;;;28.21;43.02;102039.09;4999132;28;45451;-91
2021/08/13 10:46:36;;;;;;;;;5.00;5.00;;;;;28.39;43.00;102033.91;4999390;28;45381;-91
2021/08/13 10:49:03;;;;;;;;;5.67;4.67;;;;;28.65;42.70;102037.81;4999194;28;47261;-90
2021/08/13 10:51:33;;;;;;;;;6.67;4.00;;;;;28.99;42.46;102037.34;4998801;28;45450;-91
2021/08/13 10:54:19;;;;;;;;;2.00;2.00;;;;;29.35;41.30;102042.00;4988931;28;44839;-91
2021/08/13 10:56:48;;;;;;;;;5.67;5.67;;;;;29.66;41.31;102039.00;4980635;28;45463;-91
2021/08/13 10:59:56;;;;;;;;;3.33;3.00;;;;;30.04;41.35;102040.75;4996256;28;47379;-91
2021/08/13 11:02:22;;;;;;;;;5.00;3.33;;;;;30.39;40.68;102039.91;4901378;28;45229;-91
2021/08/13 11:04:51;;;;;;;;;4.67;4.00;;;;;30.72;40.44;102039.31;4933389;28;45542;-90
2021/08/13 11:07:54;;;;;;;;;4.33;4.00;;;;;31.18;39.67;102046.28;4919186;28;44867;-91
2021/08/13 11:10:38;;;;;;;;;5.00;4.00;;;;;31.63;39.34;102043.44;4914858;28;47112;-91
2021/08/13 11:13:19;;;;;;;;;4.33;4.33;;;;;31.94;38.06;102035.63;4930217;28;45763;-91
2021/08/13 11:15:46;;;;;;;;;8.67;6.33;;;;;32.25;38.01;102031.44;4912220;28;45500;-90
2021/08/13 11:18:40;;;;;;;;;5.00;5.00;;;;;32.46;37.87;102036.34;4917780;28;45289;-91
2021/08/13 11:21:11;;;;;;;;;4.67;4.67;;;;;32.62;37.93;102038.16;4933646;28;47614;-91
2021/08/13 11:23:59;;;;;;;;;6.67;6.00;;;;;32.95;37.30;102028.31;4933284;28;45475;-91
2021/08/13 11:26:58;;;;;;;;;8.00;6.00;;;;;33.25;37.14;102032.09;4933259;28;46007;-91
2021/08/13 11:32:09;;;;;;;;;5.33;5.33;;;;;33.95;36.32;102029.53;4917706;28;45779;-91
2021/08/13 11:34:50;;;;;;;;;5.00;5.00;;;;;34.31;36.06;102032.63;4901921;28;45482;-92
2021/08/13 11:37:31;;;;;;;;;6.67;6.67;;;;;34.54;35.61;102029.03;4933447;28;45547;-90